GLO1650 SBGR-SBPS
Flight info
| Callsign | GLO1650 |
|---|---|
| Flight time | 1h 28m |
| Altitude | 37000 |
| Route | VUMEV UZ14 NITLU UZ16 OSUNO |
| Aircraft | B738/M-SDE2E3FGHIRWXY/LB1 |
Departure
| Time | 2026-05-07 11:12 |
|---|---|
| Airport | São Paulo/Guarulhos–Governor André Franco Montoro International Airport (SBGR) |
Arrival
| Time | 2026-05-07 12:40 |
|---|---|
| Airport | Porto Seguro International Airport (SBPS) |
| Time | Latitude | Longitude | Altitude | Speed | Heading |
|---|---|---|---|---|---|
| 2026-05-07 10:37 | -23.42836 | -46.47949 | 2464 ft | 0 kts | 265° |
| 2026-05-07 11:04 | -23.42834 | -46.47935 | 2468 ft | 4 kts | 258° |
| 2026-05-07 11:04 | -23.42826 | -46.47908 | 2464 ft | 4 kts | 234° |
| 2026-05-07 11:04 | -23.42807 | -46.47889 | 2467 ft | 4 kts | 199° |
| 2026-05-07 11:05 | -23.42782 | -46.47886 | 2470 ft | 3 kts | 170° |
| 2026-05-07 11:05 | -23.42779 | -46.47887 | 2464 ft | 13 kts | 169° |
| 2026-05-07 11:08 | -23.42781 | -46.47886 | 2464 ft | 2 kts | 168° |
| 2026-05-07 11:08 | -23.42831 | -46.47871 | 2467 ft | 13 kts | 155° |
| 2026-05-07 11:08 | -23.42942 | -46.47826 | 2468 ft | 22 kts | 170° |
| 2026-05-07 11:08 | -23.43085 | -46.47801 | 2469 ft | 18 kts | 192° |
| 2026-05-07 11:09 | -23.43140 | -46.47915 | 2465 ft | 18 kts | 253° |
| 2026-05-07 11:09 | -23.43176 | -46.48043 | 2469 ft | 17 kts | 253° |
| 2026-05-07 11:09 | -23.43209 | -46.48166 | 2469 ft | 17 kts | 253° |
| 2026-05-07 11:09 | -23.43242 | -46.48285 | 2469 ft | 16 kts | 249° |
| 2026-05-07 11:10 | -23.43291 | -46.48343 | 2468 ft | 5 kts | 204° |
| 2026-05-07 11:10 | -23.43305 | -46.48348 | 2467 ft | 4 kts | 195° |
| 2026-05-07 11:10 | -23.43385 | -46.48336 | 2465 ft | 15 kts | 161° |
| 2026-05-07 11:10 | -23.43408 | -46.48256 | 2460 ft | 1 kts | 72° |
| 2026-05-07 11:11 | -23.43407 | -46.48255 | 2460 ft | 3 kts | 72° |
| 2026-05-07 11:11 | -23.43332 | -46.47977 | 2462 ft | 74 kts | 73° |
| 2026-05-07 11:11 | -23.43119 | -46.47194 | 2462 ft | 138 kts | 73° |
| 2026-05-07 11:11 | -23.42805 | -46.46025 | 2664 ft | 173 kts | 73° |
| 2026-05-07 11:12 | -23.42481 | -46.44836 | 3582 ft | 162 kts | 73° |
| 2026-05-07 11:12 | -23.42140 | -46.43628 | 4185 ft | 179 kts | 73° |
| 2026-05-07 11:12 | -23.41731 | -46.42218 | 4447 ft | 209 kts | 72° |
| 2026-05-07 11:12 | -23.41264 | -46.40636 | 4668 ft | 235 kts | 72° |
| 2026-05-07 11:13 | -23.40731 | -46.38839 | 4965 ft | 261 kts | 71° |
| 2026-05-07 11:13 | -23.40162 | -46.36925 | 5738 ft | 269 kts | 71° |
| 2026-05-07 11:13 | -23.39425 | -46.35045 | 6569 ft | 273 kts | 59° |
| 2026-05-07 11:13 | -23.38748 | -46.33858 | 7162 ft | 275 kts | 56° |
| 2026-05-07 11:14 | -23.37335 | -46.31543 | 8316 ft | 280 kts | 55° |
| 2026-05-07 11:14 | -23.36609 | -46.30347 | 8858 ft | 282 kts | 56° |
| 2026-05-07 11:14 | -23.35534 | -46.28538 | 9643 ft | 286 kts | 56° |
| 2026-05-07 11:14 | -23.34452 | -46.26700 | 10430 ft | 290 kts | 57° |
| 2026-05-07 11:15 | -23.33336 | -46.24786 | 10737 ft | 312 kts | 57° |
| 2026-05-07 11:15 | -23.32132 | -46.22715 | 10971 ft | 333 kts | 57° |
| 2026-05-07 11:15 | -23.30873 | -46.20548 | 11508 ft | 343 kts | 57° |
| 2026-05-07 11:15 | -23.29592 | -46.18340 | 12205 ft | 346 kts | 57° |
| 2026-05-07 11:16 | -23.28301 | -46.16116 | 12927 ft | 349 kts | 57° |
| 2026-05-07 11:16 | -23.26998 | -46.13871 | 13590 ft | 353 kts | 57° |
| 2026-05-07 11:16 | -23.25682 | -46.11604 | 14220 ft | 357 kts | 58° |
| 2026-05-07 11:16 | -23.24361 | -46.09330 | 14859 ft | 361 kts | 58° |
| 2026-05-07 11:17 | -23.23016 | -46.07018 | 15511 ft | 364 kts | 58° |
| 2026-05-07 11:17 | -23.21530 | -46.04765 | 16074 ft | 370 kts | 46° |
| 2026-05-07 11:17 | -23.19400 | -46.03183 | 16628 ft | 376 kts | 23° |
| 2026-05-07 11:17 | -23.16915 | -46.02257 | 17277 ft | 379 kts | 18° |
| 2026-05-07 11:18 | -23.14400 | -46.01362 | 17808 ft | 384 kts | 20° |
| 2026-05-07 11:18 | -23.11843 | -46.00458 | 18313 ft | 389 kts | 15° |
| 2026-05-07 11:18 | -23.09156 | -45.99952 | 18841 ft | 394 kts | 7° |
| 2026-05-07 11:18 | -23.06412 | -45.99674 | 19366 ft | 398 kts | 5° |
| 2026-05-07 11:19 | -23.03636 | -45.99434 | 19859 ft | 403 kts | 5° |
| 2026-05-07 11:19 | -23.00837 | -45.99163 | 20351 ft | 406 kts | 6° |
| 2026-05-07 11:19 | -22.98260 | -45.98878 | 20783 ft | 410 kts | 6° |
| 2026-05-07 11:19 | -22.95411 | -45.98535 | 21252 ft | 414 kts | 6° |
| 2026-05-07 11:20 | -22.92543 | -45.98178 | 21705 ft | 418 kts | 6° |
| 2026-05-07 11:20 | -22.89649 | -45.97757 | 22151 ft | 421 kts | 12° |
| 2026-05-07 11:20 | -22.86923 | -45.96585 | 22532 ft | 425 kts | 33° |
| 2026-05-07 11:20 | -22.84535 | -45.94690 | 23009 ft | 426 kts | 38° |
| 2026-05-07 11:21 | -22.82141 | -45.92779 | 23402 ft | 431 kts | 36° |
| 2026-05-07 11:21 | -22.79685 | -45.90887 | 23765 ft | 435 kts | 36° |
| 2026-05-07 11:21 | -22.77192 | -45.89002 | 24138 ft | 439 kts | 35° |
| 2026-05-07 11:21 | -22.74673 | -45.87113 | 24510 ft | 442 kts | 35° |
| 2026-05-07 11:22 | -22.72133 | -45.85213 | 24873 ft | 445 kts | 35° |
| 2026-05-07 11:22 | -22.69573 | -45.83297 | 25176 ft | 450 kts | 35° |
| 2026-05-07 11:22 | -22.66988 | -45.81360 | 25553 ft | 453 kts | 35° |
| 2026-05-07 11:22 | -22.64393 | -45.79414 | 25918 ft | 456 kts | 36° |
| 2026-05-07 11:23 | -22.61774 | -45.77448 | 26207 ft | 460 kts | 36° |
| 2026-05-07 11:23 | -22.59138 | -45.75470 | 26519 ft | 464 kts | 36° |
| 2026-05-07 11:23 | -22.56470 | -45.73469 | 26825 ft | 467 kts | 36° |
| 2026-05-07 11:23 | -22.53799 | -45.71466 | 27128 ft | 470 kts | 36° |
| 2026-05-07 11:24 | -22.51098 | -45.69442 | 27424 ft | 473 kts | 36° |
| 2026-05-07 11:24 | -22.48384 | -45.67410 | 27724 ft | 475 kts | 36° |
| 2026-05-07 11:24 | -22.45661 | -45.65371 | 27991 ft | 479 kts | 36° |
| 2026-05-07 11:24 | -22.42911 | -45.63312 | 28239 ft | 482 kts | 36° |
| 2026-05-07 11:25 | -22.40144 | -45.61242 | 28491 ft | 485 kts | 36° |
| 2026-05-07 11:25 | -22.37358 | -45.59160 | 28763 ft | 488 kts | 36° |
| 2026-05-07 11:25 | -22.34594 | -45.57095 | 29015 ft | 491 kts | 36° |
| 2026-05-07 11:25 | -22.31778 | -45.54992 | 29263 ft | 493 kts | 36° |
| 2026-05-07 11:26 | -22.28915 | -45.52855 | 29513 ft | 496 kts | 36° |
| 2026-05-07 11:26 | -22.26067 | -45.50730 | 29769 ft | 498 kts | 36° |
| 2026-05-07 11:26 | -22.23237 | -45.48620 | 29983 ft | 502 kts | 36° |
| 2026-05-07 11:26 | -22.20360 | -45.46477 | 30195 ft | 504 kts | 36° |
| 2026-05-07 11:27 | -22.17473 | -45.44325 | 30455 ft | 506 kts | 36° |
| 2026-05-07 11:27 | -22.14568 | -45.42162 | 30703 ft | 508 kts | 36° |
| 2026-05-07 11:27 | -22.11653 | -45.39991 | 30924 ft | 510 kts | 36° |
| 2026-05-07 11:27 | -22.08724 | -45.37812 | 31138 ft | 512 kts | 36° |
| 2026-05-07 11:28 | -22.05793 | -45.35632 | 31367 ft | 514 kts | 36° |
| 2026-05-07 11:28 | -22.02860 | -45.33416 | 31615 ft | 514 kts | 38° |
| 2026-05-07 11:28 | -22.00005 | -45.31096 | 31933 ft | 513 kts | 39° |
| 2026-05-07 11:28 | -21.97211 | -45.28724 | 32302 ft | 511 kts | 40° |
| 2026-05-07 11:29 | -21.94441 | -45.26335 | 32649 ft | 510 kts | 41° |
| 2026-05-07 11:29 | -21.91672 | -45.23945 | 32923 ft | 510 kts | 41° |
| 2026-05-07 11:29 | -21.88898 | -45.21567 | 33171 ft | 511 kts | 41° |
| 2026-05-07 11:29 | -21.86104 | -45.19190 | 33433 ft | 511 kts | 40° |
| 2026-05-07 11:30 | -21.83310 | -45.16828 | 33748 ft | 510 kts | 40° |
| 2026-05-07 11:30 | -21.80520 | -45.14478 | 34027 ft | 509 kts | 40° |
| 2026-05-07 11:30 | -21.77725 | -45.12127 | 34284 ft | 510 kts | 40° |
| 2026-05-07 11:30 | -21.74929 | -45.09778 | 34530 ft | 510 kts | 40° |
| 2026-05-07 11:31 | -21.72136 | -45.07430 | 34799 ft | 509 kts | 40° |
| 2026-05-07 11:31 | -21.69348 | -45.05087 | 35082 ft | 508 kts | 40° |
| 2026-05-07 11:31 | -21.66565 | -45.02748 | 35341 ft | 507 kts | 40° |
| 2026-05-07 11:31 | -21.63781 | -45.00410 | 35562 ft | 508 kts | 40° |
| 2026-05-07 11:32 | -21.58247 | -44.95763 | 36008 ft | 508 kts | 40° |
| 2026-05-07 11:32 | -21.55465 | -44.93430 | 36256 ft | 507 kts | 40° |
| 2026-05-07 11:32 | -21.52688 | -44.91101 | 36437 ft | 507 kts | 40° |
| 2026-05-07 11:33 | -21.49903 | -44.88768 | 36619 ft | 508 kts | 40° |
| 2026-05-07 11:33 | -21.47120 | -44.86437 | 36869 ft | 506 kts | 40° |
| 2026-05-07 11:33 | -21.44349 | -44.84119 | 37163 ft | 504 kts | 40° |
| 2026-05-07 11:34 | -21.38808 | -44.79480 | 37165 ft | 504 kts | 40° |
| 2026-05-07 11:34 | -21.33308 | -44.74890 | 37162 ft | 496 kts | 40° |
| 2026-05-07 11:35 | -21.27901 | -44.70384 | 37185 ft | 495 kts | 40° |
| 2026-05-07 11:35 | -21.22465 | -44.65856 | 37175 ft | 494 kts | 40° |
| 2026-05-07 11:36 | -21.17037 | -44.61333 | 37178 ft | 495 kts | 40° |
| 2026-05-07 11:36 | -21.11603 | -44.56804 | 37196 ft | 495 kts | 40° |
| 2026-05-07 11:37 | -21.06150 | -44.52264 | 37192 ft | 497 kts | 41° |
| 2026-05-07 11:37 | -21.00686 | -44.47719 | 37177 ft | 498 kts | 40° |
| 2026-05-07 11:38 | -20.95201 | -44.43162 | 37199 ft | 499 kts | 40° |
| 2026-05-07 11:38 | -20.89707 | -44.38615 | 37195 ft | 500 kts | 40° |
| 2026-05-07 11:39 | -20.84197 | -44.34060 | 37205 ft | 500 kts | 40° |
| 2026-05-07 11:39 | -20.78686 | -44.29505 | 37204 ft | 501 kts | 41° |
| 2026-05-07 11:40 | -20.73210 | -44.24983 | 37209 ft | 500 kts | 41° |
| 2026-05-07 11:40 | -20.67712 | -44.20445 | 37215 ft | 499 kts | 41° |
| 2026-05-07 11:41 | -20.62221 | -44.15908 | 37212 ft | 499 kts | 41° |
| 2026-05-07 11:41 | -20.56772 | -44.11327 | 37224 ft | 498 kts | 41° |
| 2026-05-07 11:42 | -20.51540 | -44.06534 | 37213 ft | 491 kts | 53° |
| 2026-05-07 11:42 | -20.47768 | -44.00631 | 37228 ft | 477 kts | 68° |
| 2026-05-07 11:43 | -20.44653 | -43.94367 | 37218 ft | 478 kts | 68° |
| 2026-05-07 11:43 | -20.41479 | -43.88148 | 37224 ft | 478 kts | 67° |
| 2026-05-07 11:44 | -20.38268 | -43.81942 | 37214 ft | 478 kts | 67° |
| 2026-05-07 11:44 | -20.35052 | -43.75743 | 37230 ft | 478 kts | 67° |
| 2026-05-07 11:45 | -20.31836 | -43.69545 | 37231 ft | 478 kts | 67° |
| 2026-05-07 11:45 | -20.28635 | -43.63376 | 37225 ft | 479 kts | 67° |
| 2026-05-07 11:46 | -20.25402 | -43.57150 | 37215 ft | 481 kts | 67° |
| 2026-05-07 11:46 | -20.22159 | -43.50918 | 37210 ft | 482 kts | 67° |
| 2026-05-07 11:47 | -20.18904 | -43.44669 | 37223 ft | 482 kts | 67° |
| 2026-05-07 11:47 | -20.15648 | -43.38418 | 37222 ft | 483 kts | 67° |
| 2026-05-07 11:48 | -20.12386 | -43.32166 | 37219 ft | 483 kts | 67° |
| 2026-05-07 11:48 | -20.09187 | -43.25895 | 37210 ft | 481 kts | 69° |
| 2026-05-07 11:49 | -20.06177 | -43.19542 | 37212 ft | 480 kts | 70° |
| 2026-05-07 11:49 | -20.03190 | -43.13245 | 37207 ft | 479 kts | 69° |
| 2026-05-07 11:50 | -20.00155 | -43.06932 | 37198 ft | 479 kts | 69° |
| 2026-05-07 11:50 | -19.97115 | -43.00630 | 37197 ft | 478 kts | 69° |
| 2026-05-07 11:51 | -19.93422 | -42.94692 | 37205 ft | 488 kts | 54° |
| 2026-05-07 11:51 | -19.88895 | -42.89280 | 37193 ft | 489 kts | 53° |
| 2026-05-07 11:52 | -19.84406 | -42.83860 | 37196 ft | 488 kts | 54° |
| 2026-05-07 11:52 | -19.79966 | -42.78402 | 37183 ft | 488 kts | 54° |
| 2026-05-07 11:53 | -19.75542 | -42.72947 | 37197 ft | 488 kts | 54° |
| 2026-05-07 11:53 | -19.71136 | -42.67529 | 37194 ft | 487 kts | 54° |
| 2026-05-07 11:54 | -19.66713 | -42.62093 | 37186 ft | 487 kts | 55° |
| 2026-05-07 11:54 | -19.62285 | -42.56647 | 37179 ft | 487 kts | 55° |
| 2026-05-07 11:55 | -19.57854 | -42.51202 | 37188 ft | 487 kts | 55° |
| 2026-05-07 11:55 | -19.53431 | -42.45772 | 37194 ft | 487 kts | 55° |
| 2026-05-07 11:56 | -19.48999 | -42.40333 | 37188 ft | 487 kts | 55° |
| 2026-05-07 11:56 | -19.44566 | -42.34895 | 37181 ft | 488 kts | 55° |
| 2026-05-07 11:57 | -19.40126 | -42.29452 | 37176 ft | 488 kts | 54° |
| 2026-05-07 11:57 | -19.35681 | -42.24010 | 37191 ft | 488 kts | 55° |
| 2026-05-07 11:58 | -19.31260 | -42.18599 | 37177 ft | 489 kts | 54° |
| 2026-05-07 11:58 | -19.26812 | -42.13162 | 37191 ft | 489 kts | 54° |
| 2026-05-07 11:59 | -19.24573 | -42.10435 | 37177 ft | 489 kts | 54° |
| 2026-05-07 11:59 | -19.20250 | -42.05172 | 37183 ft | 489 kts | 54° |
| 2026-05-07 12:00 | -19.15782 | -41.99740 | 37178 ft | 489 kts | 54° |
| 2026-05-07 12:00 | -19.11317 | -41.94316 | 37172 ft | 489 kts | 54° |
| 2026-05-07 12:01 | -19.06841 | -41.88887 | 37178 ft | 488 kts | 54° |
| 2026-05-07 12:01 | -19.02410 | -41.83516 | 37172 ft | 487 kts | 54° |
| 2026-05-07 12:02 | -18.97968 | -41.78138 | 37171 ft | 485 kts | 54° |
| 2026-05-07 12:02 | -18.94278 | -41.73671 | 37166 ft | 484 kts | 54° |
| 2026-05-07 12:03 | -18.89859 | -41.68324 | 37177 ft | 482 kts | 54° |
| 2026-05-07 12:03 | -18.85454 | -41.62998 | 37169 ft | 481 kts | 54° |
| 2026-05-07 12:04 | -18.81044 | -41.57672 | 37178 ft | 482 kts | 54° |
| 2026-05-07 12:04 | -18.76634 | -41.52349 | 37171 ft | 481 kts | 54° |
| 2026-05-07 12:05 | -18.72229 | -41.47038 | 37170 ft | 480 kts | 54° |
| 2026-05-07 12:05 | -18.67824 | -41.41732 | 37164 ft | 480 kts | 54° |
| 2026-05-07 12:06 | -18.63424 | -41.36433 | 37171 ft | 480 kts | 54° |
| 2026-05-07 12:06 | -18.59017 | -41.31129 | 37179 ft | 481 kts | 53° |
| 2026-05-07 12:07 | -18.54632 | -41.25854 | 37178 ft | 481 kts | 54° |
| 2026-05-07 12:07 | -18.50218 | -41.20550 | 37170 ft | 481 kts | 53° |
| 2026-05-07 12:08 | -18.45806 | -41.15252 | 37157 ft | 480 kts | 53° |
| 2026-05-07 12:08 | -18.41403 | -41.09970 | 37168 ft | 479 kts | 53° |
| 2026-05-07 12:09 | -18.37005 | -41.04698 | 37164 ft | 478 kts | 53° |
| 2026-05-07 12:09 | -18.32622 | -40.99446 | 37161 ft | 478 kts | 53° |
| 2026-05-07 12:10 | -18.28237 | -40.94197 | 37156 ft | 476 kts | 53° |
| 2026-05-07 12:10 | -18.23860 | -40.88966 | 37169 ft | 475 kts | 53° |
| 2026-05-07 12:11 | -18.19495 | -40.83760 | 37163 ft | 474 kts | 53° |
| 2026-05-07 12:11 | -18.15161 | -40.78594 | 37162 ft | 473 kts | 53° |
| 2026-05-07 12:12 | -18.10778 | -40.73370 | 36898 ft | 477 kts | 53° |
| 2026-05-07 12:12 | -18.08603 | -40.70777 | 36384 ft | 478 kts | 52° |
| 2026-05-07 12:12 | -18.06408 | -40.68165 | 35791 ft | 476 kts | 52° |
| 2026-05-07 12:12 | -18.04212 | -40.65553 | 35127 ft | 477 kts | 52° |
| 2026-05-07 12:13 | -18.02014 | -40.62939 | 34498 ft | 477 kts | 52° |
| 2026-05-07 12:13 | -17.99834 | -40.60348 | 34045 ft | 472 kts | 52° |
| 2026-05-07 12:13 | -17.97666 | -40.57771 | 33562 ft | 468 kts | 52° |
| 2026-05-07 12:13 | -17.95516 | -40.55217 | 33089 ft | 464 kts | 52° |
| 2026-05-07 12:14 | -17.93383 | -40.52684 | 32614 ft | 461 kts | 52° |
| 2026-05-07 12:14 | -17.91265 | -40.50171 | 32152 ft | 457 kts | 52° |
| 2026-05-07 12:14 | -17.89164 | -40.47677 | 31683 ft | 454 kts | 51° |
| 2026-05-07 12:14 | -17.87083 | -40.45208 | 31224 ft | 451 kts | 51° |
| 2026-05-07 12:15 | -17.85010 | -40.42750 | 30761 ft | 448 kts | 51° |
| 2026-05-07 12:15 | -17.82952 | -40.40309 | 30308 ft | 445 kts | 51° |
| 2026-05-07 12:15 | -17.80912 | -40.37890 | 29848 ft | 442 kts | 51° |
| 2026-05-07 12:15 | -17.78880 | -40.35483 | 29380 ft | 439 kts | 51° |
| 2026-05-07 12:16 | -17.76861 | -40.33094 | 28907 ft | 436 kts | 51° |
| 2026-05-07 12:16 | -17.74853 | -40.30724 | 28438 ft | 433 kts | 51° |
| 2026-05-07 12:16 | -17.72858 | -40.28373 | 27968 ft | 430 kts | 51° |
| 2026-05-07 12:16 | -17.70877 | -40.26040 | 27503 ft | 426 kts | 51° |
| 2026-05-07 12:17 | -17.68914 | -40.23728 | 27039 ft | 423 kts | 51° |
| 2026-05-07 12:17 | -17.66964 | -40.21431 | 26577 ft | 420 kts | 51° |
| 2026-05-07 12:17 | -17.65028 | -40.19151 | 26118 ft | 417 kts | 51° |
| 2026-05-07 12:17 | -17.63107 | -40.16889 | 25658 ft | 413 kts | 50° |
| 2026-05-07 12:18 | -17.61206 | -40.14651 | 25209 ft | 410 kts | 50° |
| 2026-05-07 12:18 | -17.59314 | -40.12425 | 24757 ft | 407 kts | 50° |
| 2026-05-07 12:18 | -17.57438 | -40.10218 | 24290 ft | 404 kts | 50° |
| 2026-05-07 12:18 | -17.55578 | -40.08028 | 23853 ft | 400 kts | 50° |
| 2026-05-07 12:19 | -17.53737 | -40.05862 | 23411 ft | 397 kts | 50° |
| 2026-05-07 12:19 | -17.51905 | -40.03709 | 22970 ft | 394 kts | 50° |
| 2026-05-07 12:19 | -17.50087 | -40.01572 | 22524 ft | 391 kts | 50° |
| 2026-05-07 12:19 | -17.48284 | -39.99453 | 22086 ft | 388 kts | 50° |
| 2026-05-07 12:20 | -17.46494 | -39.97352 | 21651 ft | 385 kts | 50° |
| 2026-05-07 12:20 | -17.44719 | -39.95269 | 21219 ft | 381 kts | 50° |
| 2026-05-07 12:20 | -17.42885 | -39.93327 | 20770 ft | 380 kts | 39° |
| 2026-05-07 12:20 | -17.40613 | -39.91922 | 20388 ft | 378 kts | 28° |
| 2026-05-07 12:21 | -17.38262 | -39.90713 | 19956 ft | 375 kts | 27° |
| 2026-05-07 12:21 | -17.35928 | -39.89511 | 19535 ft | 372 kts | 28° |
| 2026-05-07 12:21 | -17.33620 | -39.88304 | 19112 ft | 369 kts | 28° |
| 2026-05-07 12:21 | -17.31346 | -39.87095 | 18689 ft | 366 kts | 29° |
| 2026-05-07 12:22 | -17.29090 | -39.85883 | 18277 ft | 363 kts | 29° |
| 2026-05-07 12:22 | -17.26856 | -39.84676 | 17862 ft | 360 kts | 29° |
| 2026-05-07 12:22 | -17.24642 | -39.83477 | 17453 ft | 357 kts | 29° |
| 2026-05-07 12:22 | -17.22454 | -39.82290 | 17046 ft | 354 kts | 29° |
| 2026-05-07 12:23 | -17.20277 | -39.81110 | 16642 ft | 351 kts | 29° |
| 2026-05-07 12:23 | -17.18115 | -39.79937 | 16235 ft | 349 kts | 29° |
| 2026-05-07 12:23 | -17.15968 | -39.78773 | 15832 ft | 346 kts | 29° |
| 2026-05-07 12:23 | -17.13829 | -39.77614 | 15424 ft | 344 kts | 29° |
| 2026-05-07 12:24 | -17.11711 | -39.76467 | 15022 ft | 341 kts | 29° |
| 2026-05-07 12:24 | -17.09610 | -39.75328 | 14627 ft | 339 kts | 29° |
| 2026-05-07 12:24 | -17.07523 | -39.74198 | 14228 ft | 336 kts | 29° |
| 2026-05-07 12:24 | -17.05450 | -39.73076 | 13835 ft | 334 kts | 29° |
| 2026-05-07 12:25 | -17.03420 | -39.71978 | 13444 ft | 332 kts | 29° |
| 2026-05-07 12:25 | -17.01371 | -39.70833 | 13058 ft | 329 kts | 32° |
| 2026-05-07 12:25 | -16.99411 | -39.69621 | 12686 ft | 326 kts | 33° |
| 2026-05-07 12:25 | -16.97507 | -39.68406 | 12307 ft | 324 kts | 33° |
| 2026-05-07 12:26 | -16.95567 | -39.67163 | 11922 ft | 322 kts | 33° |
| 2026-05-07 12:26 | -16.93691 | -39.65968 | 11540 ft | 320 kts | 33° |
| 2026-05-07 12:26 | -16.91795 | -39.64768 | 11156 ft | 317 kts | 33° |
| 2026-05-07 12:26 | -16.89885 | -39.63563 | 10762 ft | 315 kts | 33° |
| 2026-05-07 12:27 | -16.88055 | -39.62410 | 10558 ft | 307 kts | 33° |
| 2026-05-07 12:27 | -16.86246 | -39.61275 | 10403 ft | 298 kts | 33° |
| 2026-05-07 12:27 | -16.84499 | -39.60179 | 10274 ft | 289 kts | 34° |
| 2026-05-07 12:27 | -16.82797 | -39.59110 | 10140 ft | 281 kts | 34° |
| 2026-05-07 12:28 | -16.81128 | -39.58061 | 9865 ft | 278 kts | 34° |
| 2026-05-07 12:28 | -16.79481 | -39.57027 | 9591 ft | 276 kts | 34° |
| 2026-05-07 12:28 | -16.77832 | -39.55991 | 9205 ft | 278 kts | 34° |
| 2026-05-07 12:28 | -16.76180 | -39.54954 | 8899 ft | 276 kts | 34° |
| 2026-05-07 12:29 | -16.74534 | -39.53924 | 8580 ft | 275 kts | 34° |
| 2026-05-07 12:29 | -16.72936 | -39.52842 | 8282 ft | 272 kts | 39° |
| 2026-05-07 12:29 | -16.71427 | -39.51659 | 7982 ft | 271 kts | 41° |
| 2026-05-07 12:29 | -16.69943 | -39.50458 | 7684 ft | 269 kts | 41° |
| 2026-05-07 12:30 | -16.68466 | -39.49267 | 7394 ft | 267 kts | 41° |
| 2026-05-07 12:30 | -16.66998 | -39.48087 | 7103 ft | 267 kts | 40° |
| 2026-05-07 12:30 | -16.65528 | -39.46913 | 6814 ft | 265 kts | 40° |
| 2026-05-07 12:30 | -16.64069 | -39.45750 | 6523 ft | 263 kts | 40° |
| 2026-05-07 12:31 | -16.62632 | -39.44610 | 6245 ft | 263 kts | 40° |
| 2026-05-07 12:31 | -16.61191 | -39.43470 | 6082 ft | 256 kts | 40° |
| 2026-05-07 12:31 | -16.59793 | -39.42365 | 5964 ft | 248 kts | 40° |
| 2026-05-07 12:31 | -16.58442 | -39.41295 | 5857 ft | 241 kts | 40° |
| 2026-05-07 12:32 | -16.57146 | -39.40272 | 5760 ft | 224 kts | 40° |
| 2026-05-07 12:32 | -16.55963 | -39.39338 | 5669 ft | 205 kts | 41° |
| 2026-05-07 12:32 | -16.54843 | -39.38454 | 5546 ft | 203 kts | 41° |
| 2026-05-07 12:32 | -16.53707 | -39.37553 | 5340 ft | 206 kts | 41° |
| 2026-05-07 12:33 | -16.51530 | -39.35701 | 4876 ft | 191 kts | 56° |
| 2026-05-07 12:33 | -16.50985 | -39.34506 | 4708 ft | 176 kts | 75° |
| 2026-05-07 12:33 | -16.50660 | -39.33296 | 4506 ft | 170 kts | 77° |
| 2026-05-07 12:34 | -16.50350 | -39.32124 | 4320 ft | 166 kts | 76° |
| 2026-05-07 12:34 | -16.50043 | -39.30994 | 4141 ft | 159 kts | 76° |
| 2026-05-07 12:34 | -16.49755 | -39.29935 | 3982 ft | 145 kts | 76° |
| 2026-05-07 12:34 | -16.49482 | -39.28925 | 3845 ft | 140 kts | 76° |
| 2026-05-07 12:35 | -16.49216 | -39.27942 | 3652 ft | 142 kts | 76° |
| 2026-05-07 12:35 | -16.48953 | -39.26971 | 3482 ft | 140 kts | 77° |
| 2026-05-07 12:35 | -16.48687 | -39.25988 | 3326 ft | 142 kts | 77° |
| 2026-05-07 12:35 | -16.48417 | -39.24995 | 3163 ft | 143 kts | 76° |
| 2026-05-07 12:36 | -16.48154 | -39.24001 | 2994 ft | 142 kts | 77° |
| 2026-05-07 12:36 | -16.47886 | -39.23021 | 2837 ft | 141 kts | 76° |
| 2026-05-07 12:36 | -16.47617 | -39.22039 | 2711 ft | 139 kts | 77° |
| 2026-05-07 12:36 | -16.47353 | -39.21046 | 2562 ft | 144 kts | 77° |
| 2026-05-07 12:37 | -16.47080 | -39.20042 | 2369 ft | 142 kts | 76° |
| 2026-05-07 12:37 | -16.46808 | -39.19055 | 2188 ft | 141 kts | 75° |
| 2026-05-07 12:37 | -16.46543 | -39.18065 | 2001 ft | 143 kts | 76° |
| 2026-05-07 12:37 | -16.46275 | -39.17067 | 1803 ft | 143 kts | 76° |
| 2026-05-07 12:38 | -16.46006 | -39.16071 | 1618 ft | 143 kts | 76° |
| 2026-05-07 12:38 | -16.45735 | -39.15069 | 1441 ft | 144 kts | 76° |
| 2026-05-07 12:38 | -16.45467 | -39.14077 | 1242 ft | 144 kts | 76° |
| 2026-05-07 12:38 | -16.45199 | -39.13085 | 1049 ft | 141 kts | 76° |
| 2026-05-07 12:39 | -16.44933 | -39.12098 | 867 ft | 142 kts | 76° |
| 2026-05-07 12:39 | -16.44664 | -39.11104 | 678 ft | 142 kts | 76° |
| 2026-05-07 12:39 | -16.44397 | -39.10112 | 479 ft | 142 kts | 76° |
| 2026-05-07 12:39 | -16.44127 | -39.09116 | 262 ft | 145 kts | 75° |
| 2026-05-07 12:40 | -16.43865 | -39.08141 | 162 ft | 128 kts | 75° |
| 2026-05-07 12:40 | -16.43700 | -39.07506 | 162 ft | 39 kts | 75° |
| 2026-05-07 12:40 | -16.43642 | -39.07302 | 160 ft | 24 kts | 78° |
| 2026-05-07 12:40 | -16.43617 | -39.07226 | 159 ft | 10 kts | 273° |
| 2026-05-07 12:41 | -16.43644 | -39.07322 | 161 ft | 20 kts | 253° |
| 2026-05-07 12:41 | -16.43684 | -39.07471 | 162 ft | 21 kts | 255° |
| 2026-05-07 12:41 | -16.43726 | -39.07617 | 161 ft | 21 kts | 255° |
| 2026-05-07 12:41 | -16.43764 | -39.07759 | 161 ft | 20 kts | 254° |
| 2026-05-07 12:42 | -16.43801 | -39.07896 | 159 ft | 19 kts | 254° |
| 2026-05-07 12:42 | -16.43838 | -39.08029 | 158 ft | 19 kts | 254° |
| 2026-05-07 12:42 | -16.43895 | -39.08138 | 159 ft | 17 kts | 190° |
| 2026-05-07 12:42 | -16.43960 | -39.08125 | 159 ft | 0 kts | 165° |
| 2026-05-07 12:43 | -16.43980 | -39.08119 | 159 ft | 6 kts | 165° |
| 2026-05-07 12:43 | -16.43991 | -39.08116 | 159 ft | 0 kts | 165° |
| 2026-05-07 12:44 | -16.44003 | -39.08117 | 159 ft | 6 kts | 191° |
| 2026-05-07 12:44 | -16.44035 | -39.08181 | 159 ft | 12 kts | 253° |
| 2026-05-07 12:44 | -16.44057 | -39.08240 | 159 ft | 4 kts | 211° |
| 2026-05-07 12:45 | -16.44084 | -39.08237 | 159 ft | 4 kts | 169° |
| 2026-05-07 12:45 | -16.44093 | -39.08235 | 159 ft | 1 kts | 166° |
| 2026-05-07 12:45 | -16.44097 | -39.08234 | 159 ft | 0 kts | 166° |